Time;durP1;ratioP1;P1;durP2;ratioP2;P2;SDS_P1;SDS_P2;PMS_P1;PMS_P2;Temp;Humidity;BMP_temperature;BMP_pressure;BME280_temperature;BME280_humidity;BME280_pressure;Samples;Min_cycle;Max_cycle;Signal;HPM_P1;HPM_P2
2022/05/22 00:01:45;;;;;;;4.63;4.00;;;;;;;22.34;45.10;94680.56;5075433;28;20203;-68
2022/05/22 00:04:13;;;;;;;5.85;4.32;;;;;;;22.25;45.13;94687.34;5070356;28;20221;-67
2022/05/22 00:06:39;;;;;;;6.82;4.43;;;;;;;22.29;45.26;94683.13;5090672;28;20310;-61
2022/05/22 00:09:04;;;;;;;5.05;4.55;;;;;;;22.34;45.07;94685.94;5080665;28;20245;-66
2022/05/22 00:11:30;;;;;;;5.25;3.55;;;;;;;22.32;44.90;94682.69;5071261;28;20200;-66
2022/05/22 00:13:55;;;;;;;5.22;4.40;;;;;;;22.28;45.26;94680.69;5073771;28;20192;-68
2022/05/22 00:16:36;;;;;;;4.78;4.25;;;;;;;22.34;45.26;94685.13;5072398;28;20223;-69
2022/05/22 00:19:09;;;;;;;3.92;3.63;;;;;;;22.24;45.38;94675.00;5072042;28;20223;-66
2022/05/22 00:21:35;;;;;;;5.90;4.38;;;;;;;22.24;45.16;94680.38;5066981;28;20224;-66
2022/05/22 00:24:01;;;;;;;4.30;3.90;;;;;;;22.21;45.27;94667.41;5092841;28;20220;-69
2022/05/22 00:26:27;;;;;;;7.78;3.97;;;;;;;22.14;45.60;94669.38;5051579;28;20397;-68
2022/05/22 00:28:52;;;;;;;7.72;3.90;;;;;;;22.13;45.42;94655.19;5076318;28;20199;-61
2022/05/22 00:31:18;;;;;;;4.80;4.15;;;;;;;22.19;45.49;94664.97;5060672;28;20216;-65
2022/05/22 00:33:43;;;;;;;4.80;4.20;;;;;;;22.29;44.98;94656.34;5060534;28;20253;-62
2022/05/22 00:36:09;;;;;;;6.22;4.13;;;;;;;22.19;45.30;94656.13;5058336;28;20243;-68
2022/05/22 00:38:35;;;;;;;3.70;3.40;;;;;;;22.21;45.21;94654.88;5048570;28;20282;-66
2022/05/22 00:41:00;;;;;;;6.32;3.80;;;;;;;22.28;44.86;94664.63;5054494;28;20303;-64
2022/05/22 00:43:33;;;;;;;4.53;3.83;;;;;;;22.21;45.19;94664.72;5067372;28;20224;-66
2022/05/22 00:46:00;;;;;;;5.40;4.10;;;;;;;22.14;45.48;94658.66;5039826;28;20343;-64
2022/05/22 00:48:27;;;;;;;7.05;4.25;;;;;;;22.13;45.24;94668.56;5055199;28;20228;-64
2022/05/22 00:50:57;;;;;;;5.15;3.55;;;;;;;22.11;45.34;94656.47;5072600;28;20250;-62
2022/05/22 00:53:24;;;;;;;4.65;3.60;;;;;;;21.99;45.73;94665.28;5059564;28;20284;-61
2022/05/22 00:55:50;;;;;;;5.43;4.03;;;;;;;21.90;46.02;94663.19;5049546;28;20208;-64
2022/05/22 00:58:20;;;;;;;7.00;4.53;;;;;;;21.85;46.20;94661.19;5068721;28;20228;-66
2022/05/22 01:00:46;;;;;;;4.68;3.55;;;;;;;21.90;45.94;94650.59;5051761;28;20291;-65
2022/05/22 01:03:26;;;;;;;4.38;3.97;;;;;;;21.92;45.93;94655.72;5047761;28;20261;-67
2022/05/22 01:05:57;;;;;;;4.47;3.83;;;;;;;21.91;46.19;94654.09;5051425;28;20775;-64
2022/05/22 01:08:23;;;;;;;6.43;4.43;;;;;;;21.84;46.29;94651.53;5069744;28;20209;-66
2022/05/22 01:10:51;;;;;;;5.45;4.22;;;;;;;21.90;46.29;94657.81;5052466;28;20283;-62
2022/05/22 01:13:21;;;;;;;7.18;4.05;;;;;;;21.85;46.00;94650.47;5024786;28;20226;-62
2022/05/22 01:15:49;;;;;;;5.63;3.67;;;;;;;21.82;46.33;94656.31;5032772;28;20228;-68
2022/05/22 01:18:15;;;;;;;4.00;3.70;;;;;;;21.80;46.30;94651.16;5056623;28;20224;-61
2022/05/22 01:20:49;;;;;;;4.13;3.60;;;;;;;21.84;46.31;94653.38;5056277;28;20224;-66
2022/05/22 01:23:16;;;;;;;4.18;3.53;;;;;;;21.88;46.09;94654.56;5073720;28;20543;-67
2022/05/22 01:25:41;;;;;;;9.27;4.45;;;;;;;21.85;46.23;94658.50;5056861;28;20212;-62
2022/05/22 01:28:10;;;;;;;6.40;3.92;;;;;;;21.84;45.56;94651.53;5047715;28;20220;-69
2022/05/22 01:30:36;;;;;;;3.97;3.63;;;;;;;21.82;45.68;94640.25;5053151;28;20430;-68
2022/05/22 01:33:02;;;;;;;5.57;3.83;;;;;;;21.72;45.90;94638.13;5053106;28;20301;-68
2022/05/22 01:35:28;;;;;;;4.78;3.83;;;;;;;21.74;46.11;94648.59;5060320;28;20228;-67
2022/05/22 01:37:55;;;;;;;5.25;3.88;;;;;;;21.78;45.82;94655.97;5075779;28;20292;-68
2022/05/22 01:40:21;;;;;;;5.95;3.50;;;;;;;21.79;45.08;94646.06;5078905;28;20274;-67
2022/05/22 01:42:47;;;;;;;4.07;3.60;;;;;;;21.67;45.03;94651.38;5079391;28;20314;-62
2022/05/22 01:45:16;;;;;;;3.80;3.50;;;;;;;21.68;44.81;94654.84;5094963;28;20231;-62
2022/05/22 01:47:42;;;;;;;6.90;3.65;;;;;;;21.75;44.45;94656.38;5045716;28;20279;-68
2022/05/22 01:50:09;;;;;;;6.18;3.88;;;;;;;21.67;44.28;94651.38;5069962;28;20403;-61
2022/05/22 01:52:35;;;;;;;5.25;3.22;;;;;;;21.63;44.00;94660.09;5078121;28;20215;-63
2022/05/22 01:55:00;;;;;;;5.05;3.30;;;;;;;21.66;43.16;94657.78;5088072;28;20231;-65
2022/05/22 01:57:27;;;;;;;6.30;3.20;;;;;;;21.62;42.73;94661.13;5090307;28;20220;-61
2022/05/22 01:59:53;;;;;;;4.15;3.05;;;;;;;21.59;42.19;94649.03;5086627;28;20244;-68
2022/05/22 02:02:18;;;;;;;5.65;3.00;;;;;;;21.67;41.14;94651.38;5079123;28;20207;-66
2022/05/22 02:04:43;;;;;;;3.22;2.78;;;;;;;21.62;40.88;94651.25;5057858;28;20204;-61
2022/05/22 02:09:56;;;;;;;3.70;2.70;;;;;;;21.66;39.36;94667.69;5010284;28;20240;-68
2022/05/22 02:12:21;;;;;;;3.15;2.75;;;;;;;21.59;39.48;94657.88;4982159;28;20253;-67
2022/05/22 02:14:47;;;;;;;4.18;2.70;;;;;;;21.62;38.80;94659.28;5014677;28;20247;-68
2022/05/22 02:17:12;;;;;;;3.15;2.70;;;;;;;21.61;38.12;94654.16;4993406;28;20199;-69
2022/05/22 02:19:40;;;;;;;2.70;2.45;;;;;;;21.55;38.12;94656.72;4992902;28;20233;-66
2022/05/22 02:22:06;;;;;;;2.78;2.47;;;;;;;21.55;37.74;94659.38;4986686;28;20223;-66
2022/05/22 02:24:31;;;;;;;2.67;2.45;;;;;;;21.57;37.11;94656.47;4981766;28;20249;-68
2022/05/22 02:26:57;;;;;;;3.25;2.38;;;;;;;21.67;35.89;94658.59;4997638;28;20273;-61
2022/05/22 02:29:24;;;;;;;3.13;2.28;;;;;;;21.58;36.10;94658.91;4987770;28;20286;-65
2022/05/22 02:31:50;;;;;;;6.65;2.40;;;;;;;21.59;36.03;94662.41;4991432;28;20684;-68
2022/05/22 02:34:16;;;;;;;3.50;2.30;;;;;;;21.55;35.34;94667.41;5007173;28;20233;-63
2022/05/22 02:36:41;;;;;;;3.20;1.90;;;;;;;21.45;35.16;94671.69;4987993;28;20246;-68
2022/05/22 02:39:07;;;;;;;3.08;2.20;;;;;;;21.45;35.17;94661.78;4989494;28;20241;-61
2022/05/22 02:41:32;;;;;;;2.03;1.85;;;;;;;21.39;34.78;94668.06;4988958;28;20242;-68
2022/05/22 02:43:58;;;;;;;3.25;2.08;;;;;;;21.43;34.62;94674.56;5002352;28;20221;-68
2022/05/22 02:46:24;;;;;;;5.95;2.10;;;;;;;21.47;34.30;94673.09;5025061;28;20732;-67
2022/05/22 02:48:52;;;;;;;3.17;2.13;;;;;;;21.46;33.48;94668.75;5081895;28;20231;-67
2022/05/22 02:51:20;;;;;;;2.20;2.00;;;;;;;21.46;33.60;94676.78;5083955;28;20227;-69
2022/05/22 02:53:46;;;;;;;4.88;1.88;;;;;;;21.38;33.44;94670.94;5085454;28;20220;-66
2022/05/22 02:56:15;;;;;;;2.03;1.80;;;;;;;21.50;33.17;94675.31;5074375;28;20200;-66
2022/05/22 02:58:40;;;;;;;4.30;2.13;;;;;;;21.43;33.24;94668.41;5087130;28;20539;-65
2022/05/22 03:01:06;;;;;;;1.85;1.70;;;;;;;21.49;32.81;94673.69;5068577;28;20219;-62
2022/05/22 03:03:32;;;;;;;3.45;1.92;;;;;;;21.47;32.66;94673.09;5083233;28;20219;-65
2022/05/22 03:08:42;;;;;;;2.55;1.70;;;;;;;21.51;31.21;94679.59;5086913;28;20738;-68
2022/05/22 03:11:14;;;;;;;1.73;1.63;;;;;;;21.50;30.80;94685.19;5061796;28;20207;-68
2022/05/22 03:13:39;;;;;;;3.10;2.15;;;;;;;21.44;30.73;94689.59;5073823;28;20211;-62
2022/05/22 03:16:05;;;;;;;4.70;2.00;;;;;;;21.50;30.26;94686.00;5078312;28;20215;-61
2022/05/22 03:18:30;;;;;;;3.10;1.90;;;;;;;21.47;30.02;94682.97;5093062;28;20216;-61
2022/05/22 03:20:56;;;;;;;1.60;1.50;;;;;;;21.46;29.11;94676.78;5071565;28;20308;-65
2022/05/22 03:23:22;;;;;;;3.03;1.58;;;;;;;21.39;29.06;94689.47;5087696;28;20204;-66
2022/05/22 03:25:47;;;;;;;1.90;1.67;;;;;;;21.49;28.66;94695.09;5069541;28;20585;-65
2022/05/22 03:28:14;;;;;;;2.78;1.48;;;;;;;21.48;28.21;94690.75;5070505;28;20229;-62
2022/05/22 03:30:39;;;;;;;1.85;1.38;;;;;;;21.44;27.68;94686.06;5084105;28;20224;-68
2022/05/22 03:33:05;;;;;;;1.50;1.40;;;;;;;21.41;27.92;94690.06;5069296;28;20229;-69
2022/05/22 03:35:31;;;;;;;2.83;1.85;;;;;;;21.57;27.65;94694.75;5078500;28;20558;-69
2022/05/22 03:37:56;;;;;;;2.70;1.55;;;;;;;21.63;27.16;94687.69;5071974;28;20236;-65
2022/05/22 03:40:22;;;;;;;3.47;1.50;;;;;;;21.62;27.09;94691.38;5072504;28;20223;-67
2022/05/22 03:42:47;;;;;;;2.60;1.75;;;;;;;21.51;27.27;94702.84;5075438;28;20722;-67
2022/05/22 03:45:13;;;;;;;1.45;1.35;;;;;;;21.57;27.50;94696.59;5072612;28;20215;-68
2022/05/22 03:47:39;;;;;;;2.35;1.58;;;;;;;21.57;26.87;94691.25;5068695;28;20223;-62
2022/05/22 03:50:09;;;;;;;1.58;1.40;;;;;;;21.54;27.01;94699.72;5072139;28;20227;-65
2022/05/22 03:52:36;;;;;;;1.50;1.40;;;;;;;21.60;26.96;94698.84;5086256;28;20335;-68
2022/05/22 03:55:05;;;;;;;4.25;1.50;;;;;;;21.68;26.69;94695.00;5085847;28;20265;-67
2022/05/22 03:57:30;;;;;;;2.67;1.58;;;;;;;21.64;26.94;94693.84;5060878;28;20227;-65
2022/05/22 03:59:56;;;;;;;3.45;1.73;;;;;;;21.76;26.86;94698.19;5071868;28;20230;-62
2022/05/22 04:02:21;;;;;;;1.75;1.33;;;;;;;21.68;26.61;94687.81;5094006;28;20199;-67
2022/05/22 04:04:47;;;;;;;2.13;1.33;;;;;;;21.73;26.67;94689.78;5077334;28;20199;-66
2022/05/22 04:07:16;;;;;;;1.80;1.52;;;;;;;21.75;26.78;94685.81;5077297;28;20224;-65
2022/05/22 04:09:42;;;;;;;1.77;1.60;;;;;;;21.75;27.29;94698.41;5066484;28;20717;-62
2022/05/22 04:12:10;;;;;;;2.10;1.88;;;;;;;21.72;27.58;94699.66;5091033;28;20216;-62
2022/05/22 04:14:35;;;;;;;2.03;1.50;;;;;;;21.83;26.94;94699.94;5074270;28;20300;-65
2022/05/22 04:17:01;;;;;;;1.65;1.25;;;;;;;21.86;26.51;94686.09;5092033;28;20286;-65
2022/05/22 04:19:27;;;;;;;2.72;1.70;;;;;;;21.66;27.24;94695.25;5074271;28;20219;-62
2022/05/22 04:21:53;;;;;;;3.10;1.38;;;;;;;21.70;27.29;94696.41;5094653;28;20270;-69
2022/05/22 04:27:06;;;;;;;2.08;1.40;;;;;;;21.87;27.20;94707.28;5100011;28;20225;-67
2022/05/22 04:29:33;;;;;;;3.45;1.98;;;;;;;21.99;27.59;94708.09;5074787;28;20202;-65
2022/05/22 04:31:59;;;;;;;2.42;1.70;;;;;;;21.98;27.71;94714.50;5076652;28;20200;-65
2022/05/22 04:34:24;;;;;;;1.75;1.60;;;;;;;21.98;27.82;94711.03;5075983;28;20296;-62
2022/05/22 04:36:49;;;;;;;2.65;1.50;;;;;;;22.07;27.37;94716.84;5091323;28;20260;-69
2022/05/22 04:39:15;;;;;;;1.83;1.52;;;;;;;22.01;27.32;94721.28;5076305;28;20270;-68
2022/05/22 04:41:40;;;;;;;1.58;1.30;;;;;;;21.97;27.27;94707.53;5076063;28;20215;-69
2022/05/22 04:44:06;;;;;;;1.13;1.02;;;;;;;21.89;27.47;94710.56;5074986;28;20212;-62
2022/05/22 04:46:32;;;;;;;3.17;1.50;;;;;;;21.94;27.69;94721.34;5080501;28;20266;-69
2022/05/22 04:48:57;;;;;;;2.88;1.67;;;;;;;21.90;28.60;94722.88;5076459;28;20618;-62
2022/05/22 04:51:23;;;;;;;2.15;1.58;;;;;;;21.97;28.02;94717.41;5066278;28;20228;-69
2022/05/22 04:53:49;;;;;;;2.00;1.52;;;;;;;21.82;28.61;94717.06;5088664;28;20223;-65
2022/05/22 04:56:15;;;;;;;2.53;1.65;;;;;;;21.74;28.60;94710.97;5076600;28;20195;-69
2022/05/22 04:58:41;;;;;;;1.95;1.55;;;;;;;21.78;28.55;94714.84;5095943;28;20343;-65
2022/05/22 05:01:08;;;;;;;3.80;1.40;;;;;;;21.82;28.38;94717.06;5073276;28;20215;-69
2022/05/22 05:03:35;;;;;;;4.28;1.75;;;;;;;21.94;28.77;94723.22;5058838;28;20227;-66
2022/05/22 05:06:01;;;;;;;2.78;1.33;;;;;;;22.00;28.81;94715.13;5058558;28;20306;-68
2022/05/22 05:08:29;;;;;;;2.47;1.67;;;;;;;22.13;28.63;94723.97;5086795;28;20238;-65
2022/05/22 05:10:55;;;;;;;3.30;1.50;;;;;;;22.24;28.87;94717.84;5088447;28;20208;-61
2022/05/22 05:13:20;;;;;;;4.18;1.85;;;;;;;22.30;28.26;94716.91;5080677;28;20221;-66
2022/05/22 05:15:56;;;;;;;3.78;1.80;;;;;;;22.34;28.45;94718.06;5090024;28;20224;-68
2022/05/22 05:18:22;;;;;;;3.85;1.75;;;;;;;22.43;28.38;94715.88;5072184;28;20287;-66
2022/05/22 05:20:48;;;;;;;2.55;1.55;;;;;;;22.45;28.80;94717.28;5071924;28;20229;-69
2022/05/22 05:23:14;;;;;;;3.83;1.70;;;;;;;22.49;29.02;94722.19;5061181;28;20232;-65
2022/05/22 05:25:39;;;;;;;2.17;1.70;;;;;;;22.43;28.97;94718.56;5091854;28;20217;-62
2022/05/22 05:28:05;;;;;;;2.70;1.90;;;;;;;22.45;29.56;94728.00;5076064;28;20311;-65
2022/05/22 05:30:30;;;;;;;5.20;1.92;;;;;;;22.53;29.42;94726.00;5076623;28;20222;-65
2022/05/22 05:32:56;;;;;;;3.97;1.77;;;;;;;22.46;29.63;94721.59;5073387;28;20221;-62
2022/05/22 05:35:22;;;;;;;3.22;2.17;;;;;;;22.39;29.50;94720.06;5078155;28;20238;-63
2022/05/22 05:37:47;;;;;;;2.10;1.90;;;;;;;22.39;28.95;94725.41;5069829;28;20320;-68
2022/05/22 05:40:14;;;;;;;3.25;1.65;;;;;;;22.53;28.78;94726.81;5073651;28;20221;-69
2022/05/22 05:42:40;;;;;;;2.70;1.60;;;;;;;22.60;29.04;94727.53;5079156;28;20253;-67
2022/05/22 05:45:07;;;;;;;4.70;1.80;;;;;;;22.58;28.71;94732.28;5077176;28;20235;-68
2022/05/22 05:47:33;;;;;;;6.22;2.80;;;;;;;22.61;28.46;94729.16;5095376;28;20583;-67
2022/05/22 05:49:59;;;;;;;6.50;2.50;;;;;;;22.64;28.68;94725.19;5088165;28;20203;-61
2022/05/22 05:52:24;;;;;;;5.72;2.58;;;;;;;22.72;28.44;94729.38;5085563;28;20228;-61
2022/05/22 05:54:50;;;;;;;5.82;2.80;;;;;;;22.74;28.32;94730.78;5078542;28;20216;-64
2022/05/22 05:57:15;;;;;;;4.13;1.95;;;;;;;22.78;28.83;94728.47;5090720;28;20238;-61
2022/05/22 05:59:42;;;;;;;9.70;3.60;;;;;;;22.71;29.05;94733.91;5094709;28;20274;-66
2022/05/22 06:02:14;;;;;;;3.67;2.00;;;;;;;22.65;28.87;94730.31;5076049;28;20192;-65
2022/05/22 06:04:41;;;;;;;2.72;1.67;;;;;;;22.57;28.87;94732.53;5076802;28;20230;-62
2022/05/22 06:07:09;;;;;;;4.32;2.20;;;;;;;22.61;29.01;94739.03;5088755;28;20251;-62
2022/05/22 06:09:36;;;;;;;4.93;2.97;;;;;;;22.52;29.29;94735.09;5072507;28;20899;-62
2022/05/22 06:12:01;;;;;;;7.68;3.42;;;;;;;22.65;29.80;94741.03;5072569;28;20304;-68
2022/05/22 06:14:27;;;;;;;8.75;3.42;;;;;;;22.69;29.35;94738.69;5082816;28;20200;-65
2022/05/22 06:16:52;;;;;;;8.68;3.10;;;;;;;22.66;29.66;94747.22;5094488;28;20243;-68
2022/05/22 06:19:54;;;;;;;4.22;2.10;;;;;;;22.61;28.75;94745.25;5072456;28;20276;-67
2022/05/22 06:22:04;;;;;;;3.78;2.20;;;;;;;22.55;29.30;94745.34;5094267;28;20306;-67
2022/05/22 06:24:29;;;;;;;2.45;1.50;;;;;;;22.51;28.84;94744.16;5075898;28;20362;-66
2022/05/22 06:26:54;;;;;;;5.00;1.70;;;;;;;22.57;28.95;94737.91;5070359;28;20304;-67
2022/05/22 06:29:20;;;;;;;2.63;1.60;;;;;;;22.38;28.82;94738.00;5054918;28;20204;-67
2022/05/22 06:31:45;;;;;;;1.88;1.70;;;;;;;22.39;29.24;94738.81;5067547;28;20204;-63
2022/05/22 06:34:11;;;;;;;1.60;1.50;;;;;;;22.34;29.40;94731.47;5067289;28;20220;-64
2022/05/22 06:36:36;;;;;;;3.25;1.80;;;;;;;22.38;29.73;94729.97;5072195;28;20238;-61
2022/05/22 06:41:45;;;;;;;4.35;1.77;;;;;;;22.35;29.44;94741.16;5087116;28;20234;-61
2022/05/22 06:44:11;;;;;;;2.88;1.98;;;;;;;22.25;29.66;94735.53;5072748;28;20204;-64
2022/05/22 06:46:36;;;;;;;3.03;2.00;;;;;;;22.30;29.37;94737.53;5087363;28;20219;-64
2022/05/22 06:49:02;;;;;;;2.67;1.88;;;;;;;22.39;29.96;94739.63;5069796;28;20291;-68
2022/05/22 06:51:28;;;;;;;3.08;1.90;;;;;;;22.49;29.64;94733.69;5080041;28;20220;-65
2022/05/22 06:53:53;;;;;;;3.35;1.73;;;;;;;22.59;29.90;94741.16;5083093;28;20305;-64
2022/05/22 06:56:19;;;;;;;2.92;1.85;;;;;;;22.73;29.84;94731.84;5089020;28;20245;-61
2022/05/22 06:58:44;;;;;;;2.72;2.22;;;;;;;22.76;29.67;94731.34;5077928;28;20203;-64
2022/05/22 07:01:10;;;;;;;4.15;1.77;;;;;;;22.81;29.68;94739.50;5077088;28;20231;-68
2022/05/22 07:03:35;;;;;;;4.80;2.10;;;;;;;22.92;29.40;94734.38;5090439;28;20235;-65
2022/05/22 07:06:01;;;;;;;4.45;1.80;;;;;;;22.91;30.27;94728.22;5075696;28;20229;-66
2022/05/22 07:08:27;;;;;;;6.28;2.00;;;;;;;22.99;30.13;94727.03;5074417;28;20203;-65
2022/05/22 07:13:36;;;;;;;3.42;1.90;;;;;;;22.93;30.45;94719.91;5089126;28;20226;-68
2022/05/22 07:16:05;;;;;;;2.78;1.70;;;;;;;22.86;31.05;94714.69;5091486;28;20236;-65
2022/05/22 07:18:30;;;;;;;2.63;1.83;;;;;;;22.90;30.72;94722.00;5075296;28;20227;-67
2022/05/22 07:20:56;;;;;;;3.58;1.83;;;;;;;22.89;31.43;94715.03;5073377;28;20224;-68
2022/05/22 07:23:22;;;;;;;2.92;1.80;;;;;;;22.78;30.69;94721.22;5058335;28;20216;-67
2022/05/22 07:25:48;;;;;;;5.40;1.90;;;;;;;22.84;31.35;94719.47;5085568;28;20291;-65
2022/05/22 07:28:13;;;;;;;2.90;1.70;;;;;;;22.99;30.66;94713.63;5068072;28;20235;-62
2022/05/22 07:30:39;;;;;;;2.78;1.58;;;;;;;23.04;29.74;94721.78;5071121;28;20235;-61
2022/05/22 07:33:04;;;;;;;2.90;1.58;;;;;;;23.05;29.92;94728.78;5072869;28;20305;-69
2022/05/22 07:35:30;;;;;;;2.13;1.73;;;;;;;23.30;29.89;94726.63;5068029;28;20283;-61
2022/05/22 07:37:56;;;;;;;3.60;2.00;;;;;;;23.50;29.99;94734.25;5076453;28;20239;-69
2022/05/22 07:40:21;;;;;;;4.00;2.33;;;;;;;23.49;29.95;94746.03;5066770;28;20290;-67
2022/05/22 07:42:47;;;;;;;7.18;2.33;;;;;;;23.42;30.26;94741.88;5073093;28;20288;-66
2022/05/22 07:45:15;;;;;;;2.30;1.40;;;;;;;23.51;29.91;94735.06;5059510;28;20219;-61
2022/05/22 07:47:41;;;;;;;3.50;1.67;;;;;;;23.52;29.57;94731.31;5074986;28;20220;-66
2022/05/22 07:50:17;;;;;;;3.22;1.80;;;;;;;23.51;29.84;94732.38;5088491;28;20196;-61
2022/05/22 07:52:43;;;;;;;1.60;1.50;;;;;;;23.93;29.18;94714.13;5056289;28;20370;-61
2022/05/22 07:55:15;;;;;;;2.83;1.48;;;;;;;24.14;29.13;94712.59;5078845;28;20304;-69
2022/05/22 07:57:47;;;;;;;3.60;1.60;;;;;;;24.27;29.32;94706.09;5068777;28;20217;-67
2022/05/22 08:00:16;;;;;;;3.72;1.70;;;;;;;24.29;28.95;94697.78;5052726;28;20604;-65
2022/05/22 08:02:42;;;;;;;3.65;1.95;;;;;;;24.14;29.19;94696.50;5041690;28;20354;-67
2022/05/22 08:05:09;;;;;;;7.15;2.10;;;;;;;24.01;30.18;94704.88;5045413;28;20209;-68
2022/05/22 08:07:35;;;;;;;2.72;2.10;;;;;;;24.01;30.01;94693.31;5050450;28;20227;-68
2022/05/22 08:10:03;;;;;;;4.50;2.05;;;;;;;23.83;30.99;94695.16;5054353;28;20263;-62
2022/05/22 08:12:29;;;;;;;4.82;1.98;;;;;;;23.65;31.60;94687.28;5034729;28;20252;-66
2022/05/22 08:14:54;;;;;;;2.35;1.98;;;;;;;23.82;31.57;94685.47;5063659;28;20256;-66
2022/05/22 08:17:21;;;;;;;4.63;2.05;;;;;;;23.84;31.01;94679.84;5070305;28;20291;-65
2022/05/22 08:19:49;;;;;;;6.10;2.10;;;;;;;23.60;31.28;94673.75;5086682;28;20230;-67
2022/05/22 08:22:15;;;;;;;5.10;2.10;;;;;;;23.55;31.46;94672.63;5070873;28;20319;-62
2022/05/22 08:24:41;;;;;;;2.50;2.03;;;;;;;23.76;30.74;94668.47;5069460;28;20306;-62
2022/05/22 08:27:06;;;;;;;4.90;2.00;;;;;;;23.81;31.31;94665.03;5084094;28;20240;-67
2022/05/22 08:29:32;;;;;;;2.30;2.03;;;;;;;23.77;30.49;94664.72;5088562;28;20200;-69
2022/05/22 08:31:57;;;;;;;4.28;1.80;;;;;;;23.96;30.60;94648.38;5071652;28;20207;-69
2022/05/22 08:34:23;;;;;;;3.22;1.95;;;;;;;23.73;30.95;94657.38;5064005;28;20287;-66
2022/05/22 08:36:51;;;;;;;4.72;1.88;;;;;;;23.88;31.19;94646.09;5084374;28;20352;-69
2022/05/22 08:39:17;;;;;;;5.75;2.00;;;;;;;23.99;31.34;94647.88;5072235;28;20224;-65
2022/05/22 08:41:49;;;;;;;3.65;2.28;;;;;;;24.26;31.03;94649.91;5058395;28;20573;-61
2022/05/22 08:44:16;;;;;;;4.13;2.05;;;;;;;24.47;31.41;94649.19;5088464;28;20214;-61
2022/05/22 08:46:52;;;;;;;5.10;3.05;;;;;;;24.43;31.59;94653.38;5066870;28;20227;-65
2022/05/22 08:49:20;;;;;;;6.70;2.75;;;;;;;24.49;31.97;94648.94;5070498;28;20223;-66
2022/05/22 08:51:55;;;;;;;6.38;2.70;;;;;;;24.43;31.91;94656.91;5067811;28;20308;-65
2022/05/22 08:54:50;;;;;;;5.88;2.30;;;;;;;24.33;32.57;94643.31;5069337;28;20212;-68
2022/05/22 09:00:14;;;;;;;2.90;2.22;;;;;;;24.26;31.55;94648.03;5090239;28;20230;-62
2022/05/22 09:02:43;;;;;;;7.00;2.08;;;;;;;23.72;32.46;94661.13;5077063;28;20244;-68
2022/05/22 09:05:20;;;;;;;2.78;2.25;;;;;;;23.33;33.47;94656.41;5072084;28;20204;-67
2022/05/22 09:08:08;;;;;;;2.75;2.10;;;;;;;23.26;35.00;94661.09;5068396;28;20268;-65
2022/05/22 09:11:03;;;;;;;3.55;2.00;;;;;;;23.28;34.20;94663.53;5074008;28;20231;-61
2022/05/22 09:14:00;;;;;;;5.07;2.20;;;;;;;23.05;34.47;94669.81;5069474;28;20303;-62
2022/05/22 09:16:30;;;;;;;5.10;2.40;;;;;;;23.03;34.51;94667.34;5085700;28;20693;-68
2022/05/22 09:19:19;;;;;;;3.33;2.47;;;;;;;23.17;34.25;94659.03;5092066;28;20314;-62
2022/05/22 09:22:09;;;;;;;2.25;2.05;;;;;;;23.18;34.16;94661.47;5093718;28;20220;-63
2022/05/22 09:24:44;;;;;;;3.50;2.22;;;;;;;23.15;34.21;94661.97;5091187;28;20223;-62
2022/05/22 09:27:20;;;;;;;3.10;2.30;;;;;;;23.17;34.18;94651.78;5072629;28;20219;-62
2022/05/22 09:30:22;;;;;;;4.80;2.10;;;;;;;23.46;33.87;94651.78;5070488;28;20216;-62
2022/05/22 09:33:31;;;;;;;2.88;2.15;;;;;;;23.62;33.50;94651.00;5004232;28;20280;-68
2022/05/22 09:36:05;;;;;;;5.30;2.22;;;;;;;23.90;33.18;94635.94;5006363;28;20234;-68
2022/05/22 09:38:47;;;;;;;3.10;2.40;;;;;;;24.21;32.87;94629.97;5005487;28;20237;-69
2022/05/22 09:41:31;;;;;;;3.88;2.30;;;;;;;24.66;32.76;94641.63;4990398;28;20238;-65
2022/05/22 09:44:21;;;;;;;4.55;2.17;;;;;;;24.70;31.68;94637.41;5003926;28;20798;-62
2022/05/22 09:47:24;;;;;;;4.90;2.25;;;;;;;24.95;30.91;94634.22;5005631;28;20235;-68
2022/05/22 09:50:31;;;;;;;2.95;1.83;;;;;;;24.62;31.44;94629.78;5005832;28;20229;-69
2022/05/22 09:53:09;;;;;;;2.33;1.90;;;;;;;24.82;30.74;94624.63;4948628;29;20225;-69
2022/05/22 09:55:41;;;;;;;1.90;1.27;;;;;;;24.49;31.00;94617.50;4947707;29;20287;-64
2022/05/22 09:58:22;;;;;;;3.42;1.45;;;;;;;24.41;31.04;94607.97;4928532;28;20240;-69
2022/05/22 10:00:56;;;;;;;1.73;1.50;;;;;;;24.71;29.76;94605.94;4929316;29;20229;-68
2022/05/22 10:03:47;;;;;;;2.25;1.83;;;;;;;24.72;30.73;94605.69;4946534;29;20239;-61
2022/05/22 10:06:13;;;;;;;3.95;2.03;;;;;;;25.16;30.13;94599.50;4946722;29;20256;-62
2022/05/22 10:09:01;;;;;;;1.42;1.33;;;;;;;25.34;29.12;94609.09;4936123;28;20378;-67
2022/05/22 10:11:53;;;;;;;1.60;1.48;;;;;;;25.36;29.41;94601.59;4971640;28;20931;-62
2022/05/22 10:14:26;;;;;;;4.80;1.70;;;;;;;25.78;28.40;94585.53;4981811;28;20271;-68
2022/05/22 10:17:03;;;;;;;4.43;1.60;;;;;;;25.98;28.46;94590.28;4965752;28;20214;-69
2022/05/22 10:19:46;;;;;;;4.70;1.85;;;;;;;25.93;28.59;94588.41;4966997;28;20235;-69
2022/05/22 10:22:27;;;;;;;2.65;1.67;;;;;;;26.00;27.86;94580.06;4968357;28;20287;-66
2022/05/22 10:25:04;;;;;;;3.50;1.63;;;;;;;25.93;28.06;94574.13;4962105;28;20223;-69
2022/05/22 10:28:00;;;;;;;3.10;1.60;;;;;;;25.83;28.11;94574.00;5019033;28;20246;-65
2022/05/22 10:30:50;;;;;;;4.47;2.00;;;;;;;25.92;27.83;94565.19;5071306;28;20232;-67
2022/05/22 10:33:20;;;;;;;2.42;1.95;;;;;;;26.34;27.55;94563.59;5094376;28;20211;-61
2022/05/22 10:35:54;;;;;;;5.45;1.77;;;;;;;26.30;26.91;94563.31;5064050;28;20244;-66
2022/05/22 10:38:25;;;;;;;2.20;1.67;;;;;;;26.12;27.61;94553.75;5082262;28;20224;-67
2022/05/22 10:43:45;;;;;;;2.90;1.98;;;;;;;26.22;28.76;94561.09;5099635;28;20246;-62
2022/05/22 10:46:10;;;;;;;4.63;2.20;;;;;;;26.06;28.40;94551.28;5089826;28;20225;-62
2022/05/22 10:48:48;;;;;;;4.07;1.92;;;;;;;26.25;28.83;94554.34;5070581;28;20224;-68
2022/05/22 10:51:23;;;;;;;3.40;2.05;;;;;;;26.13;28.57;94552.69;5083053;28;20235;-68
2022/05/22 10:53:52;;;;;;;5.43;2.00;;;;;;;25.88;28.14;94550.66;5088098;28;20273;-68
2022/05/22 10:56:19;;;;;;;6.53;1.92;;;;;;;26.27;27.78;94552.22;5068164;28;20192;-69
2022/05/22 10:58:55;;;;;;;3.63;2.03;;;;;;;26.42;27.71;94554.19;5067247;28;20212;-67
2022/05/22 11:01:31;;;;;;;2.58;2.15;;;;;;;26.84;27.04;94551.44;5072960;28;20230;-65
2022/05/22 11:04:06;;;;;;;6.22;1.90;;;;;;;26.56;27.61;94547.28;5089495;28;20704;-68
2022/05/22 11:06:33;;;;;;;2.30;1.63;;;;;;;26.63;27.50;94550.56;5089415;28;20235;-65
2022/05/22 11:08:59;;;;;;;5.10;1.95;;;;;;;26.33;27.63;94552.00;5083741;28;20220;-68
2022/05/22 11:11:30;;;;;;;2.97;1.88;;;;;;;26.44;27.83;94552.88;5068602;28;20195;-67
2022/05/22 11:14:09;;;;;;;3.63;1.83;;;;;;;26.47;27.61;94548.84;5086922;28;20262;-64
2022/05/22 11:16:36;;;;;;;2.15;2.00;;;;;;;26.05;28.76;94545.09;5067010;28;20246;-66
2022/05/22 11:19:25;;;;;;;2.13;1.90;;;;;;;26.44;28.46;94552.88;5069126;28;20228;-68
2022/05/22 11:22:15;;;;;;;2.35;2.10;;;;;;;26.44;28.53;94546.63;5079509;28;20224;-69
2022/05/22 11:24:53;;;;;;;8.55;7.50;;;;;;;26.52;28.38;94544.31;5082859;28;20331;-64
2022/05/22 11:27:47;;;;;;;10.50;8.07;;;;;;;26.70;28.47;94540.31;5056914;28;20248;-61
2022/05/22 11:30:29;;;;;;;8.25;4.57;;;;;;;27.06;28.55;94543.94;5084945;28;20294;-67
2022/05/22 11:33:16;;;;;;;18.08;10.15;;;;;;;26.99;28.38;94537.19;5067645;28;20216;-62
2022/05/22 11:36:08;;;;;;;14.13;11.55;;;;;;;27.20;27.59;94527.25;5086770;28;20227;-69
2022/05/22 11:39:05;;;;;;;9.05;6.00;;;;;;;27.53;27.54;94498.13;5055795;28;20216;-66
2022/05/22 11:42:00;;;;;;;5.72;4.43;;;;;;;27.47;27.70;94522.41;4988725;28;20226;-60
2022/05/22 11:44:58;;;;;;;4.13;2.10;;;;;;;26.84;28.36;94525.28;4985043;28;20241;-68
2022/05/22 11:47:29;;;;;;;4.60;2.15;;;;;;;26.71;28.47;94509.59;4992298;28;20215;-61
2022/05/22 11:50:29;;;;;;;2.83;1.98;;;;;;;26.79;28.50;94517.16;4991065;28;20266;-65
2022/05/22 11:53:07;;;;;;;2.63;1.70;;;;;;;26.89;27.80;94521.78;4975619;28;20274;-68
2022/05/22 11:55:38;;;;;;;3.03;1.80;;;;;;;26.31;27.88;94531.78;4979942;28;20219;-65
2022/05/22 11:58:30;;;;;;;1.88;1.55;;;;;;;26.03;27.93;94522.16;4987546;28;20339;-69
2022/05/22 12:01:15;;;;;;;2.10;1.90;;;;;;;25.63;28.99;94531.56;4987572;28;20257;-69
2022/05/22 12:04:01;;;;;;;3.58;1.95;;;;;;;25.59;29.33;94525.88;4993871;28;20297;-62
2022/05/22 12:06:32;;;;;;;2.25;1.90;;;;;;;25.50;29.04;94530.94;4993981;28;20284;-70
2022/05/22 12:09:13;;;;;;;5.20;1.90;;;;;;;25.59;28.83;94528.59;4970860;28;20239;-69